Time;durP1;ratioP1;P1;durP2;ratioP2;P2;SDS_P1;SDS_P2;PMS_P1;PMS_P2;Temp;Humidity;BMP_temperature;BMP_pressure;BME280_temperature;BME280_humidity;BME280_pressure;Samples;Min_cycle;Max_cycle;Signal;HPM_P1;HPM_P2
2022/07/06 00:01:41;;;;;;;2.80;0.75;;;17.00;95.30;;;;;;5017392;28;20185;-83
2022/07/06 00:04:06;;;;;;;2.63;0.98;;;17.00;95.40;;;;;;5017350;28;20250;-83
2022/07/06 00:06:32;;;;;;;5.93;1.20;;;17.00;95.40;;;;;;5017505;28;20661;-82
2022/07/06 00:08:58;;;;;;;3.03;1.13;;;17.00;95.70;;;;;;5017462;28;20171;-83
2022/07/06 00:11:24;;;;;;;3.10;0.88;;;17.00;95.40;;;;;;5032514;28;20517;-83
2022/07/06 00:13:51;;;;;;;2.10;1.02;;;17.10;95.50;;;;;;5032426;28;20189;-83
2022/07/06 00:16:17;;;;;;;2.47;0.88;;;17.10;95.50;;;;;;5032411;28;20179;-83
2022/07/06 00:18:42;;;;;;;3.47;0.93;;;17.10;95.60;;;;;;5032401;28;20184;-83
2022/07/06 00:21:08;;;;;;;7.80;1.00;;;17.10;95.50;;;;;;5017284;28;20175;-83
2022/07/06 00:23:34;;;;;;;4.22;1.00;;;17.00;95.40;;;;;;5032225;28;20221;-82
2022/07/06 00:26:00;;;;;;;4.80;1.05;;;17.00;95.70;;;;;;5016649;28;20577;-83
2022/07/06 00:28:26;;;;;;;3.95;0.80;;;16.90;96.00;;;;;;5016925;28;20218;-83
2022/07/06 00:30:52;;;;;;;2.63;0.73;;;16.90;96.00;;;;;;5017081;28;20487;-82
2022/07/06 00:33:18;;;;;;;3.55;0.85;;;16.70;96.20;;;;;;5032025;28;20233;-83
2022/07/06 00:35:44;;;;;;;3.15;0.93;;;16.70;96.60;;;;;;5016531;28;20614;-82
2022/07/06 00:38:10;;;;;;;4.45;1.20;;;16.60;96.60;;;;;;5016015;28;20191;-82
2022/07/06 00:40:35;;;;;;;2.42;1.00;;;16.60;96.50;;;;;;5015485;28;20171;-82
2022/07/06 00:43:01;;;;;;;3.55;1.48;;;16.60;96.50;;;;;;5016616;28;20200;-83
2022/07/06 00:45:28;;;;;;;2.58;0.90;;;16.60;96.50;;;;;;5016572;28;20237;-83
2022/07/06 00:47:54;;;;;;;3.92;0.95;;;16.60;96.50;;;;;;5016611;28;20250;-82
2022/07/06 00:50:21;;;;;;;2.55;0.75;;;16.60;96.80;;;;;;5031731;28;20194;-83
2022/07/06 00:52:53;;;;;;;1.90;0.80;;;16.60;96.70;;;;;;5014336;28;20203;-83
2022/07/06 00:55:24;;;;;;;4.22;0.90;;;16.60;97.00;;;;;;5016287;28;20177;-83
2022/07/06 00:57:50;;;;;;;5.18;1.40;;;16.60;96.90;;;;;;5016439;28;20171;-82
2022/07/06 01:00:19;;;;;;;3.35;1.00;;;16.60;96.70;;;;;;5016338;28;20164;-83
2022/07/06 01:02:46;;;;;;;3.38;1.00;;;16.60;96.90;;;;;;5015000;28;20528;-83
2022/07/06 01:05:13;;;;;;;2.92;1.00;;;16.60;96.70;;;;;;5016311;28;20182;-83
2022/07/06 01:07:41;;;;;;;3.03;0.98;;;16.60;96.50;;;;;;5015964;28;20202;-83
2022/07/06 01:10:08;;;;;;;2.67;0.95;;;16.60;96.70;;;;;;5015847;28;20246;-82
2022/07/06 01:12:38;;;;;;;4.03;1.10;;;16.50;96.80;;;;;;5016011;28;20210;-82
2022/07/06 01:15:08;;;;;;;2.63;0.80;;;16.50;96.90;;;;;;5015878;28;20171;-82
2022/07/06 01:17:34;;;;;;;5.50;1.35;;;16.50;97.00;;;;;;5016062;28;20179;-83
2022/07/06 01:20:19;;;;;;;2.15;0.80;;;16.40;96.80;;;;;;5031307;28;20598;-83
2022/07/06 01:22:47;;;;;;;5.13;1.00;;;16.30;97.10;;;;;;5030734;28;20183;-83
2022/07/06 01:25:13;;;;;;;4.13;1.00;;;16.30;97.20;;;;;;5030941;28;20178;-83
2022/07/06 01:27:41;;;;;;;3.65;1.20;;;16.20;97.20;;;;;;5015864;28;20175;-83
2022/07/06 01:30:09;;;;;;;2.55;1.00;;;16.20;97.30;;;;;;5015910;28;20191;-83
2022/07/06 01:32:35;;;;;;;3.72;1.38;;;16.30;97.20;;;;;;5015856;28;20199;-83
2022/07/06 01:35:02;;;;;;;3.30;1.10;;;16.30;97.20;;;;;;5015566;28;20622;-83
2022/07/06 01:37:28;;;;;;;1.27;0.80;;;16.30;97.10;;;;;;5015290;28;20237;-83
2022/07/06 01:39:57;;;;;;;4.35;0.90;;;16.30;97.20;;;;;;5015851;28;20525;-84
2022/07/06 01:42:22;;;;;;;2.30;1.00;;;16.30;97.00;;;;;;5015608;28;20254;-83
2022/07/06 01:44:48;;;;;;;3.85;1.00;;;16.30;96.80;;;;;;5015552;28;20282;-83
2022/07/06 01:47:14;;;;;;;5.00;1.20;;;16.30;97.10;;;;;;5015544;28;20175;-83
2022/07/06 01:49:39;;;;;;;3.80;1.00;;;16.30;97.30;;;;;;5015281;28;20178;-83
2022/07/06 01:52:05;;;;;;;3.05;1.50;;;16.30;97.10;;;;;;4997571;28;20223;-82
2022/07/06 01:54:31;;;;;;;2.72;1.10;;;16.30;97.60;;;;;;5030365;28;20227;-82
2022/07/06 01:56:57;;;;;;;2.20;0.82;;;16.40;97.40;;;;;;5015326;28;20176;-82
2022/07/06 01:59:22;;;;;;;5.65;1.17;;;16.30;97.40;;;;;;5014165;28;20175;-83
2022/07/06 02:01:48;;;;;;;5.15;1.10;;;16.40;97.40;;;;;;5015401;28;20159;-83
2022/07/06 02:04:14;;;;;;;2.25;1.08;;;16.40;97.80;;;;;;5013800;28;20202;-82
2022/07/06 02:06:39;;;;;;;5.82;1.08;;;16.40;97.30;;;;;;5013442;28;20554;-82
2022/07/06 02:09:05;;;;;;;3.00;1.02;;;16.30;97.50;;;;;;5015258;28;20261;-83
2022/07/06 02:11:31;;;;;;;2.85;0.98;;;16.40;97.80;;;;;;5015174;28;20194;-83
2022/07/06 02:13:56;;;;;;;3.22;0.98;;;16.30;97.60;;;;;;5015087;28;20179;-83
2022/07/06 02:16:22;;;;;;;3.40;1.13;;;16.30;97.70;;;;;;5030422;28;20182;-82
2022/07/06 02:18:47;;;;;;;5.40;1.10;;;16.30;97.80;;;;;;5014890;28;20179;-83
2022/07/06 02:21:13;;;;;;;3.63;0.90;;;16.30;97.90;;;;;;5014114;28;20191;-83
2022/07/06 02:23:39;;;;;;;2.90;1.02;;;16.20;98.20;;;;;;5014923;28;20175;-82
2022/07/06 02:26:05;;;;;;;2.72;1.10;;;16.30;97.90;;;;;;5014920;28;20175;-83
2022/07/06 02:28:30;;;;;;;6.43;1.00;;;16.20;97.70;;;;;;5030181;28;20237;-83
2022/07/06 02:30:56;;;;;;;3.90;1.00;;;16.20;98.00;;;;;;5029986;28;20598;-83
2022/07/06 02:33:22;;;;;;;4.38;1.10;;;16.20;97.90;;;;;;5014740;28;20214;-83
2022/07/06 02:35:47;;;;;;;3.63;0.88;;;16.20;97.60;;;;;;5014855;28;20272;-82
2022/07/06 02:38:13;;;;;;;3.78;1.02;;;16.20;97.70;;;;;;5012918;28;20181;-82
2022/07/06 02:40:39;;;;;;;3.47;1.00;;;16.20;97.70;;;;;;5014911;28;20214;-83
2022/07/06 02:45:40;;;;;;;3.38;1.00;;;16.10;97.70;;;;;;5077021;23;20282;-82
2022/07/06 02:48:06;;;;;;;3.78;0.93;;;16.10;97.70;;;;;;4975899;28;20169;-82
2022/07/06 02:50:32;;;;;;;4.18;1.10;;;16.10;97.70;;;;;;4974556;28;20231;-83
2022/07/06 02:52:58;;;;;;;6.63;1.40;;;16.10;97.70;;;;;;4974191;28;20214;-81
2022/07/06 02:55:24;;;;;;;3.45;1.05;;;16.00;97.80;;;;;;4975715;28;20582;-82
2022/07/06 02:57:49;;;;;;;3.03;0.90;;;16.00;98.00;;;;;;4990884;28;20180;-83
2022/07/06 03:00:16;;;;;;;2.45;1.02;;;16.00;97.80;;;;;;4990511;28;20184;-82
2022/07/06 03:02:42;;;;;;;4.60;1.23;;;15.90;97.90;;;;;;4974567;28;20191;-83
2022/07/06 03:05:08;;;;;;;2.53;1.20;;;15.90;97.80;;;;;;4974354;28;20177;-82
2022/07/06 03:07:33;;;;;;;3.78;1.00;;;15.90;98.00;;;;;;4990693;28;20212;-82
2022/07/06 03:09:59;;;;;;;2.30;1.05;;;15.80;98.30;;;;;;4982305;28;20204;-81
2022/07/06 03:12:25;;;;;;;2.80;0.80;;;15.80;98.30;;;;;;5010011;28;20215;-80
2022/07/06 03:14:50;;;;;;;2.40;1.10;;;15.80;98.50;;;;;;4993225;28;20603;-82
2022/07/06 03:17:17;;;;;;;8.10;0.80;;;15.90;98.50;;;;;;4993631;28;20187;-81
2022/07/06 03:19:43;;;;;;;3.90;1.23;;;15.90;98.30;;;;;;4993912;28;20266;-83
2022/07/06 03:22:09;;;;;;;3.53;1.00;;;15.80;98.40;;;;;;5009859;28;20192;-81
2022/07/06 03:24:34;;;;;;;2.35;1.00;;;15.80;98.60;;;;;;5010061;28;20640;-82
2022/07/06 03:27:01;;;;;;;3.70;0.95;;;15.90;98.40;;;;;;4994777;28;20187;-82
2022/07/06 03:29:27;;;;;;;5.95;0.98;;;15.90;98.30;;;;;;4993561;28;20168;-82
2022/07/06 03:31:52;;;;;;;3.45;0.90;;;15.90;98.30;;;;;;4995073;28;20215;-83
2022/07/06 03:34:18;;;;;;;2.35;0.90;;;15.90;98.30;;;;;;5013772;28;20191;-82
2022/07/06 03:36:45;;;;;;;5.10;1.10;;;15.80;98.20;;;;;;5013084;28;20187;-83
2022/07/06 03:39:10;;;;;;;6.68;1.10;;;15.80;98.40;;;;;;5013811;28;20247;-81
2022/07/06 03:41:36;;;;;;;4.63;0.95;;;15.80;98.70;;;;;;4997204;28;20184;-82
2022/07/06 03:44:02;;;;;;;3.53;0.85;;;15.80;98.90;;;;;;4998194;28;20653;-82
2022/07/06 03:46:29;;;;;;;3.72;1.10;;;15.70;98.60;;;;;;4998262;28;20179;-81
2022/07/06 03:48:55;;;;;;;3.88;1.02;;;15.80;98.50;;;;;;5013458;28;20176;-82
2022/07/06 03:51:20;;;;;;;4.00;0.90;;;15.80;98.60;;;;;;5013310;28;20267;-81
2022/07/06 03:53:46;;;;;;;3.13;1.02;;;15.70;98.60;;;;;;5012983;28;20184;-81
2022/07/06 03:56:27;;;;;;;2.75;1.15;;;15.60;98.60;;;;;;4996679;28;20246;-81
2022/07/06 03:58:53;;;;;;;2.10;1.00;;;15.60;98.90;;;;;;4998044;28;20180;-81
2022/07/06 04:01:19;;;;;;;2.65;0.93;;;15.60;99.10;;;;;;4997372;28;20180;-82
2022/07/06 04:03:44;;;;;;;2.80;1.17;;;15.60;99.00;;;;;;4996933;28;20176;-82
2022/07/06 04:06:10;;;;;;;3.65;0.90;;;15.60;98.90;;;;;;4996582;28;20234;-81
2022/07/06 04:08:36;;;;;;;3.67;0.98;;;15.70;98.80;;;;;;4997811;28;20172;-81
2022/07/06 04:11:02;;;;;;;2.83;1.00;;;15.70;98.80;;;;;;5012978;28;20180;-81
2022/07/06 04:13:28;;;;;;;2.53;1.00;;;15.70;99.10;;;;;;5012698;28;20208;-80
2022/07/06 04:15:54;;;;;;;4.43;1.00;;;15.80;99.10;;;;;;5012810;28;20234;-82
2022/07/06 04:18:20;;;;;;;2.08;0.98;;;15.80;99.20;;;;;;4997756;28;20621;-81
2022/07/06 04:20:45;;;;;;;3.40;1.00;;;15.80;99.20;;;;;;5012725;28;20180;-81
2022/07/06 04:23:11;;;;;;;6.53;0.90;;;15.80;99.30;;;;;;5012467;28;20267;-82
2022/07/06 04:25:37;;;;;;;3.92;1.30;;;15.80;99.40;;;;;;5012436;28;20176;-81
2022/07/06 04:28:03;;;;;;;2.70;0.90;;;15.90;99.50;;;;;;4996318;28;20180;-80
2022/07/06 04:30:29;;;;;;;1.75;0.77;;;15.90;99.50;;;;;;4997420;28;20172;-81
2022/07/06 04:32:55;;;;;;;3.00;1.10;;;15.90;99.30;;;;;;5012524;28;20214;-82
2022/07/06 04:35:21;;;;;;;4.82;1.27;;;15.90;99.30;;;;;;5012411;28;20191;-82
2022/07/06 04:37:47;;;;;;;3.25;1.00;;;15.90;99.40;;;;;;4981206;28;20606;-82
2022/07/06 04:40:14;;;;;;;2.67;0.75;;;15.90;99.80;;;;;;4976743;28;20181;-80
2022/07/06 04:42:40;;;;;;;4.93;1.30;;;16.00;99.20;;;;;;4993009;28;20211;-81
2022/07/06 04:45:06;;;;;;;2.40;0.90;;;16.00;98.90;;;;;;4996757;28;20255;-82
2022/07/06 04:47:32;;;;;;;2.70;1.30;;;16.00;99.10;;;;;;4996010;28;20183;-81
2022/07/06 04:49:58;;;;;;;3.03;0.90;;;16.00;99.40;;;;;;4996002;28;20223;-81
2022/07/06 04:52:24;;;;;;;3.08;1.10;;;16.00;99.50;;;;;;4996802;28;20653;-81
2022/07/06 04:54:50;;;;;;;4.95;0.88;;;16.00;99.30;;;;;;4997026;28;20249;-82
2022/07/06 04:57:15;;;;;;;3.90;0.95;;;15.90;99.40;;;;;;4995598;28;20610;-81
2022/07/06 04:59:41;;;;;;;4.53;0.80;;;15.90;99.90;;;;;;4995720;28;20172;-81
2022/07/06 05:02:07;;;;;;;3.58;1.25;;;15.90;99.80;;;;;;4997035;28;20510;-81
2022/07/06 05:04:33;;;;;;;3.72;1.10;;;15.90;99.30;;;;;;4995484;28;20270;-81
2022/07/06 05:06:59;;;;;;;4.50;1.08;;;16.00;99.10;;;;;;4996436;28;20190;-81
2022/07/06 05:09:25;;;;;;;4.63;1.38;;;16.00;99.50;;;;;;5011821;28;20176;-82
2022/07/06 05:11:51;;;;;;;5.97;1.65;;;16.10;99.30;;;;;;5011801;28;20215;-81
2022/07/06 05:14:17;;;;;;;3.03;0.90;;;16.10;99.40;;;;;;4996515;28;20179;-81
2022/07/06 05:16:43;;;;;;;3.88;0.90;;;15.90;99.30;;;;;;5011505;28;20171;-81
2022/07/06 05:19:08;;;;;;;5.25;1.05;;;16.00;99.30;;;;;;5011819;28;20175;-81
2022/07/06 05:21:34;;;;;;;6.25;0.90;;;15.90;99.60;;;;;;5011835;28;20191;-81
2022/07/06 05:24:00;;;;;;;6.10;1.23;;;16.10;99.30;;;;;;4996217;28;20176;-81
2022/07/06 05:26:26;;;;;;;5.78;1.70;;;16.10;99.50;;;;;;4996387;28;20727;-81
2022/07/06 05:28:51;;;;;;;6.07;1.23;;;16.10;99.40;;;;;;5011348;28;20180;-80
2022/07/06 05:31:17;;;;;;;5.75;1.08;;;16.20;99.60;;;;;;5011581;28;20231;-82
2022/07/06 05:33:43;;;;;;;3.78;1.00;;;16.30;99.40;;;;;;4996147;28;20290;-82
2022/07/06 05:36:08;;;;;;;3.35;1.02;;;16.30;99.30;;;;;;5011155;28;20199;-81
2022/07/06 05:38:35;;;;;;;2.97;1.02;;;16.40;99.20;;;;;;5010978;28;20215;-81
2022/07/06 05:41:01;;;;;;;5.38;1.08;;;16.50;99.00;;;;;;4995982;28;20218;-82
2022/07/06 05:43:27;;;;;;;2.78;1.10;;;16.50;99.10;;;;;;4994901;28;20183;-81
2022/07/06 05:45:52;;;;;;;4.10;1.10;;;16.60;98.90;;;;;;5010875;28;20669;-82
2022/07/06 05:51:02;;;;;;;4.80;1.10;;;16.80;98.50;;;;;;4996380;28;20214;-81
2022/07/06 05:53:28;;;;;;;3.75;1.00;;;16.70;98.90;;;;;;5010610;28;20216;-81
2022/07/06 05:55:54;;;;;;;2.95;0.82;;;16.80;98.60;;;;;;5010028;28;20184;-82
2022/07/06 05:58:19;;;;;;;3.00;0.85;;;16.80;98.50;;;;;;5011094;28;20187;-80
2022/07/06 06:00:45;;;;;;;2.50;0.80;;;16.70;98.30;;;;;;4995892;28;20207;-81
2022/07/06 06:03:11;;;;;;;5.28;1.40;;;16.80;99.00;;;;;;5010820;28;20179;-81
2022/07/06 06:05:37;;;;;;;2.67;1.40;;;16.80;98.50;;;;;;4994387;28;20171;-81
2022/07/06 06:08:04;;;;;;;5.22;1.20;;;16.80;98.90;;;;;;4995421;28;20518;-80
2022/07/06 06:10:29;;;;;;;2.80;1.23;;;16.80;98.60;;;;;;4995600;28;20168;-81
2022/07/06 06:12:55;;;;;;;3.40;1.02;;;16.90;98.50;;;;;;4994283;28;20529;-81
2022/07/06 06:15:21;;;;;;;4.28;0.90;;;17.00;98.00;;;;;;5010639;28;20214;-80
2022/07/06 06:17:47;;;;;;;2.67;0.82;;;17.00;97.80;;;;;;4994234;28;20234;-81
2022/07/06 06:20:14;;;;;;;7.60;0.98;;;17.20;97.60;;;;;;4977377;28;20568;-80
2022/07/06 06:22:51;;;;;;;5.40;0.80;;;17.30;97.60;;;;;;4974414;28;20275;-82
2022/07/06 06:25:27;;;;;;;2.72;0.70;;;17.40;97.10;;;;;;4974782;28;20203;-80
2022/07/06 06:27:53;;;;;;;3.78;0.90;;;17.50;96.70;;;;;;4974777;28;20186;-82
2022/07/06 06:30:19;;;;;;;3.35;0.80;;;17.60;96.80;;;;;;4974882;28;20169;-80
2022/07/06 06:32:45;;;;;;;5.00;1.00;;;17.60;96.60;;;;;;4974745;28;20219;-81
2022/07/06 06:35:11;;;;;;;2.20;0.93;;;17.60;96.50;;;;;;4974589;28;20184;-82
2022/07/06 06:37:36;;;;;;;4.38;0.95;;;17.70;96.10;;;;;;4989997;28;20190;-82
2022/07/06 06:40:04;;;;;;;6.32;1.20;;;17.70;96.60;;;;;;5009140;28;20176;-81
2022/07/06 06:42:29;;;;;;;1.85;0.55;;;17.80;95.90;;;;;;4994074;28;20218;-80
2022/07/06 06:44:55;;;;;;;2.20;0.90;;;17.90;95.00;;;;;;5009973;28;20247;-81
2022/07/06 06:47:21;;;;;;;3.20;0.90;;;17.80;95.20;;;;;;5009115;28;20203;-81
2022/07/06 06:49:48;;;;;;;3.20;0.80;;;17.80;95.10;;;;;;4993910;28;20206;-81
2022/07/06 06:52:14;;;;;;;2.17;0.80;;;17.70;95.30;;;;;;4988955;28;20270;-80
2022/07/06 06:54:39;;;;;;;3.17;0.80;;;17.70;94.40;;;;;;4983371;28;20331;-79
2022/07/06 06:57:05;;;;;;;2.70;0.60;;;17.70;95.00;;;;;;4993839;28;20239;-82
2022/07/06 06:59:31;;;;;;;2.90;0.70;;;17.70;94.60;;;;;;4992647;28;20274;-82
2022/07/06 07:01:56;;;;;;;5.13;0.90;;;17.70;95.40;;;;;;4992957;28;20624;-79
2022/07/06 07:04:23;;;;;;;8.50;1.05;;;17.80;94.90;;;;;;4994549;28;20231;-81
2022/07/06 07:06:48;;;;;;;4.55;0.70;;;17.80;94.70;;;;;;5011160;28;20241;-82
2022/07/06 07:09:14;;;;;;;3.75;0.77;;;17.80;94.30;;;;;;4997289;28;20179;-80
2022/07/06 07:11:40;;;;;;;3.63;0.70;;;17.80;95.10;;;;;;4998126;28;20188;-81
2022/07/06 07:14:05;;;;;;;5.82;0.95;;;17.80;95.50;;;;;;4997559;28;20180;-79
2022/07/06 07:16:31;;;;;;;2.50;0.70;;;17.80;95.10;;;;;;4997709;28;20610;-81
2022/07/06 07:18:57;;;;;;;3.13;1.00;;;17.80;95.00;;;;;;4997306;28;20521;-81
2022/07/06 07:21:23;;;;;;;7.00;0.95;;;17.90;95.80;;;;;;4997555;28;20176;-81
2022/07/06 07:23:50;;;;;;;4.25;0.80;;;17.90;95.10;;;;;;4997107;28;20176;-80
2022/07/06 07:26:16;;;;;;;3.80;0.70;;;18.00;94.70;;;;;;4997246;28;20591;-81
2022/07/06 07:28:42;;;;;;;2.55;0.70;;;17.80;94.10;;;;;;4997306;28;20207;-81
2022/07/06 07:31:07;;;;;;;3.22;0.57;;;17.90;94.60;;;;;;4997349;28;20172;-83
2022/07/06 07:33:34;;;;;;;2.63;0.68;;;18.00;94.20;;;;;;4997211;28;20265;-81
2022/07/06 07:35:59;;;;;;;2.50;0.70;;;18.10;94.30;;;;;;4998464;28;20172;-81
2022/07/06 07:38:25;;;;;;;2.78;0.80;;;18.10;94.40;;;;;;5013171;28;20183;-82
2022/07/06 07:40:53;;;;;;;2.92;0.85;;;18.10;95.30;;;;;;4997191;28;20168;-81
2022/07/06 07:43:19;;;;;;;1.10;0.60;;;18.20;94.70;;;;;;4997418;28;20618;-82
2022/07/06 07:45:45;;;;;;;4.10;0.95;;;18.30;94.80;;;;;;5013096;28;20259;-81
2022/07/06 07:48:11;;;;;;;4.25;0.77;;;18.40;94.20;;;;;;4996978;28;20180;-81
2022/07/06 07:50:40;;;;;;;2.65;0.80;;;18.50;94.00;;;;;;5013264;28;20558;-81
2022/07/06 07:53:05;;;;;;;2.67;0.73;;;18.50;94.00;;;;;;4996808;28;20301;-81
2022/07/06 07:55:31;;;;;;;3.03;0.70;;;18.50;93.90;;;;;;5013107;28;20561;-82
2022/07/06 07:57:57;;;;;;;6.22;0.90;;;18.60;93.50;;;;;;5013123;28;20208;-81
2022/07/06 08:00:24;;;;;;;0.85;0.40;;;18.50;93.00;;;;;;4997925;28;20204;-82
2022/07/06 08:02:50;;;;;;;1.40;0.60;;;18.40;93.70;;;;;;5012794;28;20222;-80
2022/07/06 08:05:15;;;;;;;1.88;0.60;;;18.40;93.90;;;;;;4997391;28;20185;-80
2022/07/06 08:07:44;;;;;;;1.63;0.60;;;18.50;92.90;;;;;;4992591;28;20256;-82
2022/07/06 08:10:10;;;;;;;5.90;0.90;;;18.50;92.60;;;;;;4996769;28;20576;-81
2022/07/06 08:12:37;;;;;;;2.95;0.63;;;18.50;92.70;;;;;;4986280;28;20228;-82
2022/07/06 08:15:04;;;;;;;4.22;0.93;;;18.60;93.00;;;;;;4995945;28;20172;-79
2022/07/06 08:17:30;;;;;;;8.27;0.90;;;18.70;92.80;;;;;;4996158;28;20183;-81
2022/07/06 08:19:55;;;;;;;3.03;0.95;;;18.70;93.10;;;;;;4994821;28;20176;-80
2022/07/06 08:22:21;;;;;;;2.30;0.60;;;18.70;92.10;;;;;;4992310;28;20272;-82
2022/07/06 08:24:47;;;;;;;3.03;0.70;;;18.70;92.50;;;;;;4976005;28;20668;-81
2022/07/06 08:27:13;;;;;;;3.17;0.75;;;18.70;93.00;;;;;;4977395;28;20349;-82
2022/07/06 08:29:38;;;;;;;2.25;0.43;;;18.80;92.20;;;;;;4976061;28;20180;-81
2022/07/06 08:32:04;;;;;;;3.72;0.98;;;18.90;92.70;;;;;;4976022;28;20506;-80
2022/07/06 08:34:30;;;;;;;1.20;0.40;;;19.10;92.30;;;;;;4986423;28;20223;-81
2022/07/06 08:36:56;;;;;;;2.20;0.70;;;19.10;91.30;;;;;;4999601;28;20315;-82
2022/07/06 08:39:22;;;;;;;3.25;0.63;;;19.30;91.80;;;;;;4990923;28;20499;-81
2022/07/06 08:41:48;;;;;;;1.67;0.50;;;19.40;91.70;;;;;;4991329;28;20520;-81
2022/07/06 08:44:18;;;;;;;4.05;0.90;;;19.40;91.50;;;;;;4991727;28;20220;-81
2022/07/06 08:46:45;;;;;;;1.75;0.60;;;19.40;91.30;;;;;;4991671;28;20193;-81
2022/07/06 08:49:16;;;;;;;3.83;0.50;;;19.50;91.00;;;;;;4977049;28;20185;-80
2022/07/06 08:51:41;;;;;;;2.05;0.70;;;19.40;90.70;;;;;;4991911;28;20300;-80
2022/07/06 08:54:08;;;;;;;5.55;0.57;;;19.50;90.00;;;;;;4991636;28;20268;-80
2022/07/06 08:56:34;;;;;;;3.28;0.43;;;19.50;91.50;;;;;;4975616;28;20181;-80
2022/07/06 08:59:00;;;;;;;2.63;0.60;;;19.40;90.10;;;;;;4990994;28;20188;-82
2022/07/06 09:01:27;;;;;;;2.95;0.47;;;19.40;90.80;;;;;;4994942;28;20496;-80
2022/07/06 09:03:55;;;;;;;2.40;0.63;;;19.50;90.00;;;;;;4993070;28;20184;-81
2022/07/06 09:06:24;;;;;;;1.33;0.50;;;19.40;90.30;;;;;;4994362;28;20242;-81
2022/07/06 09:08:54;;;;;;;3.65;0.70;;;19.40;90.40;;;;;;4996029;28;20633;-82
2022/07/06 09:11:21;;;;;;;3.60;0.60;;;19.50;90.80;;;;;;4993653;28;20188;-80
2022/07/06 09:13:47;;;;;;;3.20;0.70;;;19.60;90.50;;;;;;4994468;28;20554;-82
2022/07/06 09:16:15;;;;;;;5.20;0.60;;;19.60;90.50;;;;;;5009295;28;20816;-83
2022/07/06 09:18:44;;;;;;;3.13;0.52;;;19.60;89.70;;;;;;5010568;28;20195;-82
2022/07/06 09:21:10;;;;;;;3.40;0.80;;;19.70;89.30;;;;;;4996051;28;20183;-82
2022/07/06 09:23:37;;;;;;;2.10;0.50;;;19.80;90.30;;;;;;4995403;28;20164;-83
2022/07/06 09:26:06;;;;;;;1.58;0.50;;;20.00;90.50;;;;;;5010673;28;20261;-81
2022/07/06 09:28:45;;;;;;;0.90;0.40;;;20.20;87.40;;;;;;4994474;28;20180;-80
2022/07/06 09:31:12;;;;;;;1.63;0.40;;;20.50;90.00;;;;;;5010525;28;20242;-81
2022/07/06 09:33:38;;;;;;;2.35;0.50;;;20.80;86.60;;;;;;4994128;28;20235;-80
2022/07/06 09:36:05;;;;;;;4.10;0.50;;;20.70;84.20;;;;;;5010613;28;20180;-81
2022/07/06 09:38:32;;;;;;;2.95;0.60;;;20.40;83.80;;;;;;5010172;28;20211;-82
2022/07/06 09:40:58;;;;;;;1.65;0.50;;;20.10;85.20;;;;;;5010237;28;20203;-81
2022/07/06 09:43:24;;;;;;;3.65;0.60;;;20.10;87.70;;;;;;4994236;28;20168;-81
2022/07/06 09:45:55;;;;;;;2.20;0.30;;;20.10;86.50;;;;;;5010168;28;20235;-80
2022/07/06 09:48:22;;;;;;;0.52;0.30;;;20.00;86.90;;;;;;4995425;28;20176;-81
2022/07/06 09:51:06;;;;;;;1.58;0.40;;;19.90;86.10;;;;;;5008458;28;20227;-81
2022/07/06 09:53:35;;;;;;;1.15;0.50;;;19.80;83.90;;;;;;5010014;28;20246;-81
2022/07/06 09:56:05;;;;;;;0.98;0.40;;;19.80;83.90;;;;;;5008982;28;20626;-80
2022/07/06 09:58:30;;;;;;;4.32;0.55;;;20.00;85.90;;;;;;4995097;28;20242;-83
2022/07/06 10:00:56;;;;;;;1.33;0.50;;;20.00;85.40;;;;;;4994033;28;20180;-81
2022/07/06 10:03:22;;;;;;;1.38;0.50;;;20.10;86.10;;;;;;4993785;28;20271;-81
2022/07/06 10:05:49;;;;;;;1.58;0.60;;;20.30;86.00;;;;;;5008894;28;20195;-81
2022/07/06 10:08:16;;;;;;;1.08;0.40;;;20.30;86.50;;;;;;4994874;28;20227;-81
2022/07/06 10:10:43;;;;;;;2.08;0.57;;;20.60;86.00;;;;;;4993181;28;20179;-81
2022/07/06 10:13:09;;;;;;;1.73;0.50;;;20.80;83.60;;;;;;4988194;28;20231;-81
2022/07/06 10:15:39;;;;;;;3.10;0.68;;;20.90;83.00;;;;;;4984068;28;20196;-83
2022/07/06 10:18:08;;;;;;;2.53;0.60;;;20.90;83.10;;;;;;4982501;28;20180;-83
2022/07/06 10:20:37;;;;;;;1.38;0.50;;;20.80;83.90;;;;;;4984709;28;20202;-81
2022/07/06 10:23:05;;;;;;;2.90;0.43;;;20.80;81.90;;;;;;4984158;28;20176;-81
2022/07/06 10:25:33;;;;;;;0.85;0.40;;;20.50;84.00;;;;;;4983021;28;20181;-80
2022/07/06 10:28:00;;;;;;;3.42;0.60;;;20.30;82.70;;;;;;4983792;28;20180;-80
2022/07/06 10:30:28;;;;;;;3.88;1.10;;;20.10;83.10;;;;;;4982281;28;20607;-79
2022/07/06 10:32:57;;;;;;;2.90;0.50;;;19.90;83.40;;;;;;4994341;28;20210;-81
2022/07/06 10:35:23;;;;;;;3.50;0.70;;;19.80;84.60;;;;;;4985954;28;20181;-82
2022/07/06 10:38:10;;;;;;;3.35;0.60;;;19.70;84.90;;;;;;4990823;28;20543;-81
2022/07/06 10:43:22;;;;;;;3.38;0.68;;;19.60;86.70;;;;;;4994641;28;20188;-82
2022/07/06 10:45:48;;;;;;;4.75;0.82;;;19.50;87.00;;;;;;5009231;28;20235;-82
2022/07/06 10:48:17;;;;;;;0.95;0.50;;;19.50;86.70;;;;;;4994472;28;20179;-82
2022/07/06 10:50:45;;;;;;;4.60;0.60;;;19.50;87.40;;;;;;4994284;28;20175;-80
2022/07/06 10:53:22;;;;;;;1.05;0.45;;;19.60;86.60;;;;;;4984860;28;20208;-81
2022/07/06 10:55:51;;;;;;;1.48;0.50;;;19.50;85.70;;;;;;4973558;28;20177;-81
2022/07/06 10:58:52;;;;;;;2.80;0.70;;;19.40;87.60;;;;;;4982111;28;20191;-82
2022/07/06 11:01:20;;;;;;;4.75;0.75;;;19.30;87.10;;;;;;5008205;28;20274;-81
2022/07/06 11:03:47;;;;;;;2.47;0.52;;;19.30;86.80;;;;;;4994059;28;20204;-82
2022/07/06 11:06:14;;;;;;;0.65;0.30;;;19.30;87.50;;;;;;5009104;28;20179;-82
2022/07/06 11:08:54;;;;;;;4.32;0.50;;;19.30;86.90;;;;;;4992546;28;20172;-80
2022/07/06 11:11:21;;;;;;;2.65;0.60;;;19.40;84.10;;;;;;4994173;28;20163;-80
2022/07/06 11:13:54;;;;;;;1.42;0.40;;;19.40;85.40;;;;;;5009334;28;20211;-82
2022/07/06 11:16:23;;;;;;;2.85;0.63;;;19.50;85.10;;;;;;4982366;28;20212;-80
2022/07/06 11:19:15;;;;;;;3.25;0.70;;;19.50;87.30;;;;;;4973354;28;20220;-82
2022/07/06 11:21:47;;;;;;;1.27;0.45;;;19.50;86.70;;;;;;4973500;28;20177;-81
2022/07/06 11:24:19;;;;;;;1.35;0.52;;;19.40;86.70;;;;;;4973115;28;20642;-82
2022/07/06 11:26:50;;;;;;;8.98;0.60;;;19.30;86.40;;;;;;4973314;28;20208;-81
2022/07/06 11:29:20;;;;;;;2.40;0.77;;;19.20;87.10;;;;;;4991422;28;20261;-82
2022/07/06 11:31:47;;;;;;;2.75;0.60;;;19.10;87.50;;;;;;5009282;28;20168;-82
2022/07/06 11:34:18;;;;;;;3.45;0.70;;;19.10;86.90;;;;;;4989842;28;20212;-80
2022/07/06 11:36:44;;;;;;;1.30;0.40;;;19.10;86.90;;;;;;4985638;28;20634;-80
2022/07/06 11:39:10;;;;;;;4.45;0.60;;;19.30;88.00;;;;;;4975352;28;20189;-81
2022/07/06 11:41:36;;;;;;;2.40;0.70;;;19.40;86.40;;;;;;4973211;28;20619;-81
2022/07/06 11:44:03;;;;;;;0.93;0.40;;;19.60;88.10;;;;;;4979746;28;20592;-80
2022/07/06 11:46:34;;;;;;;2.97;0.52;;;19.80;87.20;;;;;;4992235;28;20208;-82
2022/07/06 11:49:05;;;;;;;12.00;1.20;;;20.10;86.00;;;;;;4993787;28;20176;-81
2022/07/06 11:51:34;;;;;;;1.10;0.43;;;20.40;87.00;;;;;;5008388;28;20243;-82
2022/07/06 11:54:02;;;;;;;2.67;0.57;;;20.60;85.50;;;;;;4995148;28;20219;-82
2022/07/06 11:56:28;;;;;;;2.05;0.60;;;20.80;87.40;;;;;;4976831;28;20271;-81
2022/07/06 11:58:59;;;;;;;3.00;0.98;;;20.90;83.80;;;;;;4991324;28;20187;-81
2022/07/06 12:01:27;;;;;;;4.00;0.50;;;20.70;82.60;;;;;;4997005;28;20179;-81
2022/07/06 12:03:57;;;;;;;2.08;0.50;;;20.70;85.60;;;;;;4994812;28;20519;-82
2022/07/06 12:06:25;;;;;;;4.55;0.95;;;20.60;84.60;;;;;;5020404;28;20172;-82
2022/07/06 12:08:53;;;;;;;3.00;0.68;;;20.70;85.20;;;;;;4995714;28;20183;-82
2022/07/06 12:11:29;;;;;;;2.58;0.50;;;20.90;85.10;;;;;;4993077;28;20192;-80
2022/07/06 12:14:00;;;;;;;3.17;0.85;;;21.10;84.80;;;;;;5008535;28;20226;-80
2022/07/06 12:16:34;;;;;;;3.03;0.60;;;21.30;83.00;;;;;;4988336;28;20528;-82
2022/07/06 12:19:02;;;;;;;2.65;0.43;;;21.30;82.40;;;;;;4993477;28;20202;-81
2022/07/06 12:21:29;;;;;;;3.47;0.65;;;21.20;81.10;;;;;;4989241;28;20180;-80
2022/07/06 12:23:55;;;;;;;3.15;0.65;;;21.00;82.30;;;;;;4994449;28;20279;-84
2022/07/06 12:26:29;;;;;;;1.60;0.70;;;20.70;82.20;;;;;;4995461;28;20283;-80
2022/07/06 12:29:09;;;;;;;5.50;0.55;;;20.40;82.90;;;;;;4995155;28;20188;-83
2022/07/06 12:31:48;;;;;;;2.30;0.55;;;20.00;85.40;;;;;;4996847;28;20202;-83
2022/07/06 12:34:18;;;;;;;1.52;0.45;;;19.90;84.60;;;;;;5011542;28;20191;-80
2022/07/06 12:36:55;;;;;;;2.55;0.75;;;19.60;84.20;;;;;;4995288;28;20192;-80
2022/07/06 12:39:26;;;;;;;2.28;0.73;;;19.50;85.60;;;;;;4995097;28;20206;-81
2022/07/06 12:41:59;;;;;;;2.35;0.68;;;19.30;85.40;;;;;;4993397;28;20183;-81
2022/07/06 12:44:25;;;;;;;2.47;0.40;;;19.20;85.40;;;;;;4993301;28;20234;-81
2022/07/06 12:47:11;;;;;;;2.35;0.55;;;19.10;87.40;;;;;;4995828;28;20346;-82
2022/07/06 12:49:38;;;;;;;0.45;0.40;;;18.90;85.50;;;;;;4983733;28;20218;-82
2022/07/06 12:52:07;;;;;;;1.95;0.50;;;18.90;85.20;;;;;;4996295;28;20254;-81
2022/07/06 12:54:36;;;;;;;1.63;0.38;;;18.80;85.50;;;;;;5005693;28;20207;-82
2022/07/06 12:57:12;;;;;;;2.65;0.85;;;18.90;85.00;;;;;;4975389;28;20173;-83